Time;durP1;ratioP1;P1;durP2;ratioP2;P2;SDS_P1;SDS_P2;PMS_P1;PMS_P2;Temp;Humidity;BMP_temperature;BMP_pressure;BME280_temperature;BME280_humidity;BME280_pressure;Samples;Min_cycle;Max_cycle;Signal;HPM_P1;HPM_P2
2023/09/01 00:00:49;;;;;;;5.60;3.67;;;;;;;14.88;100.00;100238.44;5019208;28;20213;-74
2023/09/01 00:03:17;;;;;;;4.40;3.70;;;;;;;14.85;100.00;100245.59;5002016;28;20626;-74
2023/09/01 00:05:44;;;;;;;4.97;3.70;;;;;;;14.84;100.00;100254.47;5006897;28;20224;-75
2023/09/01 00:08:10;;;;;;;5.17;3.60;;;;;;;14.82;100.00;100249.16;5004260;28;20223;-75
2023/09/01 00:10:39;;;;;;;6.13;3.30;;;;;;;14.77;100.00;100247.38;5007247;28;20199;-75
2023/09/01 00:13:05;;;;;;;5.93;3.50;;;;;;;14.75;100.00;100247.41;5023913;28;20226;-75
2023/09/01 00:15:33;;;;;;;4.43;3.40;;;;;;;14.74;100.00;100243.84;5008405;28;20283;-75
2023/09/01 00:17:59;;;;;;;4.43;3.33;;;;;;;14.68;100.00;100245.66;5007884;28;20219;-76
2023/09/01 00:20:26;;;;;;;5.80;3.63;;;;;;;14.67;100.00;100235.91;5004743;28;20680;-75
2023/09/01 00:22:53;;;;;;;6.73;3.67;;;;;;;14.63;100.00;100239.47;5009892;28;20192;-76
2023/09/01 00:25:19;;;;;;;7.03;3.60;;;;;;;14.60;100.00;100237.72;5008086;28;20223;-75
2023/09/01 00:27:45;;;;;;;5.50;4.00;;;;;;;14.55;100.00;100235.97;5006844;28;20231;-76
2023/09/01 00:30:12;;;;;;;5.53;3.73;;;;;;;14.50;100.00;100244.00;5005846;28;20258;-76
2023/09/01 00:32:39;;;;;;;5.33;3.80;;;;;;;14.48;100.00;100236.91;5019470;28;20695;-75
2023/09/01 00:35:05;;;;;;;6.67;4.47;;;;;;;14.46;100.00;100236.91;5007454;28;20933;-75
2023/09/01 00:37:32;;;;;;;5.73;4.27;;;;;;;14.49;100.00;100236.00;5006278;28;20220;-75
2023/09/01 00:39:58;;;;;;;6.50;4.70;;;;;;;14.46;100.00;100236.91;5004046;28;20287;-75
2023/09/01 00:42:25;;;;;;;6.23;4.63;;;;;;;14.46;100.00;100236.03;5006431;28;20555;-76
2023/09/01 00:44:51;;;;;;;9.17;4.53;;;;;;;14.49;100.00;100230.69;5007608;28;21082;-76
2023/09/01 00:47:17;;;;;;;5.60;4.33;;;;;;;14.47;100.00;100235.13;5009626;28;20234;-76
2023/09/01 00:49:44;;;;;;;5.87;4.57;;;;;;;14.49;100.00;100228.03;5008240;28;20222;-76
2023/09/01 00:52:11;;;;;;;6.93;4.83;;;;;;;14.47;100.00;100222.69;5007450;28;20197;-75
2023/09/01 00:54:37;;;;;;;5.70;4.90;;;;;;;14.47;100.00;100228.03;5008542;28;20196;-76
2023/09/01 00:57:04;;;;;;;5.57;4.77;;;;;;;14.45;100.00;100218.28;5004877;28;20220;-76
2023/09/01 00:59:31;;;;;;;6.10;4.70;;;;;;;14.43;100.00;100214.72;5007208;28;20287;-76
2023/09/01 01:01:57;;;;;;;7.47;4.47;;;;;;;14.47;100.00;100213.81;5006545;28;20224;-76
2023/09/01 01:04:25;;;;;;;5.87;4.73;;;;;;;14.47;100.00;100201.38;5005309;28;20672;-75
2023/09/01 01:06:58;;;;;;;7.23;4.57;;;;;;;14.44;100.00;100206.72;5004576;28;20231;-76
2023/09/01 01:09:38;;;;;;;6.60;4.33;;;;;;;14.45;100.00;100202.28;5002519;28;20690;-76
2023/09/01 01:12:15;;;;;;;6.37;4.47;;;;;;;14.42;100.00;100187.16;5003722;28;20207;-76
2023/09/01 01:14:47;;;;;;;5.80;4.40;;;;;;;14.44;100.00;100182.75;5007638;28;20361;-76
2023/09/01 01:17:19;;;;;;;5.87;4.53;;;;;;;14.47;100.00;100196.06;5004161;28;20208;-75
2023/09/01 01:20:13;;;;;;;7.10;4.93;;;;;;;14.47;100.00;100189.84;5000514;28;20199;-75
2023/09/01 01:23:05;;;;;;;5.73;4.20;;;;;;;14.47;100.00;100185.41;5007430;28;20204;-76
2023/09/01 01:25:32;;;;;;;5.83;4.63;;;;;;;14.51;100.00;100179.16;5006666;28;20224;-76
2023/09/01 01:28:06;;;;;;;7.00;4.77;;;;;;;14.53;100.00;100193.34;4996880;28;20783;-76
2023/09/01 01:30:33;;;;;;;6.33;4.37;;;;;;;14.54;100.00;100196.91;5004991;28;20192;-75
2023/09/01 01:33:00;;;;;;;7.50;4.70;;;;;;;14.51;100.00;100191.59;5008312;28;20220;-75
2023/09/01 01:35:56;;;;;;;7.67;4.90;;;;;;;14.54;100.00;100199.56;5006250;28;20202;-76
2023/09/01 01:38:27;;;;;;;5.47;4.40;;;;;;;14.58;100.00;100201.31;5016812;28;20223;-76
2023/09/01 01:41:08;;;;;;;6.33;4.70;;;;;;;14.59;100.00;100187.09;4996636;28;20193;-75
2023/09/01 01:43:37;;;;;;;9.13;6.50;;;;;;;14.60;100.00;100186.19;5004481;28;20196;-75
2023/09/01 01:46:05;;;;;;;10.57;6.30;;;;;;;14.62;100.00;100185.28;5006127;28;20226;-76
2023/09/01 01:48:38;;;;;;;14.20;7.17;;;;;;;14.59;100.00;100179.97;5000120;28;20231;-76
2023/09/01 01:51:07;;;;;;;12.47;7.67;;;;;;;14.61;100.00;100182.63;5005831;28;20200;-76
2023/09/01 01:53:36;;;;;;;15.43;7.83;;;;;;;14.62;100.00;100182.63;5001822;28;20674;-76
2023/09/01 01:56:03;;;;;;;10.73;6.83;;;;;;;14.63;100.00;100175.50;5005327;28;20273;-76
2023/09/01 01:58:30;;;;;;;11.07;6.30;;;;;;;14.60;100.00;100175.53;5005786;28;20354;-76
2023/09/01 02:00:57;;;;;;;12.60;6.87;;;;;;;14.60;100.00;100168.44;5006341;28;20200;-76
2023/09/01 02:03:23;;;;;;;11.17;6.20;;;;;;;14.61;100.00;100178.19;5006753;28;20224;-76
2023/09/01 02:05:50;;;;;;;11.07;5.87;;;;;;;14.65;100.00;100174.59;5003686;28;20215;-76
2023/09/01 02:08:19;;;;;;;9.10;4.80;;;;;;;14.64;100.00;100172.84;5003957;28;20232;-76
2023/09/01 02:10:48;;;;;;;6.50;4.13;;;;;;;14.62;100.00;100171.97;5005850;28;20200;-76
2023/09/01 02:13:14;;;;;;;5.67;3.93;;;;;;;14.63;100.00;100170.19;5004519;28;20203;-75
2023/09/01 02:15:50;;;;;;;5.93;3.97;;;;;;;14.64;100.00;100167.50;5008600;28;20200;-76
2023/09/01 02:18:17;;;;;;;4.40;3.13;;;;;;;14.65;100.00;100171.94;5006991;28;20251;-75
2023/09/01 02:20:43;;;;;;;3.07;2.77;;;;;;;14.63;100.00;100171.06;5005156;28;20196;-76
2023/09/01 02:23:10;;;;;;;3.70;2.90;;;;;;;14.63;100.00;100173.72;5007458;28;20196;-77
2023/09/01 02:25:37;;;;;;;3.90;3.10;;;;;;;14.63;100.00;100181.72;5005034;28;20676;-77
2023/09/01 02:28:04;;;;;;;3.43;2.70;;;;;;;14.67;100.00;100175.47;5006330;28;20220;-76
2023/09/01 02:30:30;;;;;;;3.30;2.53;;;;;;;14.70;100.00;100174.56;5006228;28;20200;-76
2023/09/01 02:32:56;;;;;;;3.63;2.47;;;;;;;14.71;100.00;100168.34;5007063;28;20196;-76
2023/09/01 02:35:23;;;;;;;2.90;2.30;;;;;;;14.69;100.00;100171.03;5003492;28;20207;-77
2023/09/01 02:37:49;;;;;;;2.33;2.10;;;;;;;14.72;100.00;100168.34;5006034;28;20269;-76
2023/09/01 02:40:16;;;;;;;2.10;1.90;;;;;;;14.70;100.00;100170.13;5006930;28;20292;-77
2023/09/01 02:42:42;;;;;;;2.70;2.20;;;;;;;14.70;100.00;100171.91;5005970;28;20199;-76
2023/09/01 02:45:13;;;;;;;2.40;2.03;;;;;;;14.71;100.00;100176.34;5004246;28;20350;-76
2023/09/01 02:47:40;;;;;;;2.13;1.93;;;;;;;14.67;100.00;100180.81;5003243;28;20220;-75
2023/09/01 02:50:07;;;;;;;4.13;1.90;;;;;;;14.69;100.00;100178.13;5005918;28;20644;-77
2023/09/01 02:52:34;;;;;;;1.70;1.60;;;;;;;14.67;100.00;100174.59;5008833;28;20204;-76
2023/09/01 02:55:00;;;;;;;1.90;1.70;;;;;;;14.66;100.00;100176.38;5009857;28;20219;-76
2023/09/01 02:57:27;;;;;;;2.00;1.80;;;;;;;14.69;100.00;100183.47;5006054;28;20212;-77
2023/09/01 02:59:53;;;;;;;2.10;1.90;;;;;;;14.68;100.00;100179.91;5012652;28;20201;-76
2023/09/01 03:02:20;;;;;;;2.33;1.70;;;;;;;14.66;100.00;100175.50;5009170;28;20283;-77
2023/09/01 03:04:52;;;;;;;2.70;2.20;;;;;;;14.67;100.00;100174.59;5009373;28;20205;-76
2023/09/01 03:07:18;;;;;;;2.57;1.80;;;;;;;14.65;100.00;100177.28;5009395;28;20236;-75
2023/09/01 03:09:44;;;;;;;2.63;1.90;;;;;;;14.67;100.00;100177.25;5009786;28;20209;-76
2023/09/01 03:12:11;;;;;;;2.33;2.00;;;;;;;14.69;100.00;100171.03;5009682;28;20196;-76
2023/09/01 03:14:38;;;;;;;2.20;2.00;;;;;;;14.69;100.00;100173.69;5011472;28;20287;-75
2023/09/01 03:17:05;;;;;;;4.20;1.90;;;;;;;14.70;100.00;100172.78;5040223;28;20299;-76
2023/09/01 03:19:34;;;;;;;1.70;1.60;;;;;;;14.69;100.00;100178.13;5007010;28;20235;-76
2023/09/01 03:22:00;;;;;;;3.00;2.23;;;;;;;14.71;100.00;100168.34;5010388;28;20882;-75
2023/09/01 03:24:28;;;;;;;3.10;2.50;;;;;;;14.74;100.00;100171.88;5013072;28;20307;-76
2023/09/01 03:26:54;;;;;;;2.00;1.80;;;;;;;14.73;100.00;100171.88;5008038;28;20608;-75
2023/09/01 03:29:21;;;;;;;2.70;2.30;;;;;;;14.72;100.00;100168.34;5020386;28;20846;-76
2023/09/01 03:31:48;;;;;;;2.50;2.10;;;;;;;14.71;100.00;100161.22;5010223;28;20290;-76
2023/09/01 03:34:14;;;;;;;2.43;1.93;;;;;;;14.71;100.00;100161.22;5009751;28;20224;-76
2023/09/01 03:36:40;;;;;;;2.20;2.00;;;;;;;14.75;100.00;100167.41;5009243;28;20219;-75
2023/09/01 03:39:07;;;;;;;2.73;2.30;;;;;;;14.72;100.00;100160.34;5013080;28;20203;-75
2023/09/01 03:41:37;;;;;;;2.90;2.27;;;;;;;14.71;100.00;100169.22;5010130;28;20204;-76
2023/09/01 03:44:03;;;;;;;3.10;2.50;;;;;;;14.70;100.00;100169.25;5007746;28;20294;-76
2023/09/01 03:46:30;;;;;;;2.43;2.00;;;;;;;14.71;100.00;100171.00;5006287;28;20231;-76
2023/09/01 03:48:56;;;;;;;2.37;2.00;;;;;;;14.71;100.00;100166.56;5005445;28;20576;-76
2023/09/01 03:51:23;;;;;;;2.37;2.00;;;;;;;14.71;100.00;100171.91;5007432;28;20572;-77
2023/09/01 03:53:49;;;;;;;2.87;1.97;;;;;;;14.71;100.00;100166.56;5006588;28;20287;-75
2023/09/01 03:56:18;;;;;;;2.20;2.00;;;;;;;14.72;100.00;100167.44;5006127;28;20892;-76
2023/09/01 03:58:44;;;;;;;3.13;2.23;;;;;;;14.70;100.00;100164.78;5007186;28;20254;-76
2023/09/01 04:01:11;;;;;;;3.43;2.33;;;;;;;14.74;100.00;100163.00;5005037;28;20668;-76
2023/09/01 04:03:42;;;;;;;2.27;2.07;;;;;;;14.71;100.00;100163.91;5007407;28;20288;-75
2023/09/01 04:06:10;;;;;;;3.07;2.30;;;;;;;14.74;100.00;100163.88;5003890;28;20199;-76
2023/09/01 04:08:37;;;;;;;2.60;2.10;;;;;;;14.74;100.00;100161.22;5010389;28;20307;-75
2023/09/01 04:11:03;;;;;;;2.83;2.10;;;;;;;14.76;100.00;100160.31;5008631;28;20282;-76
2023/09/01 04:13:33;;;;;;;2.73;2.43;;;;;;;14.78;100.00;100166.50;5008952;28;20214;-76
2023/09/01 04:16:00;;;;;;;6.60;4.00;;;;;;;14.82;100.00;100169.19;5006747;28;20207;-76
2023/09/01 04:18:27;;;;;;;6.20;4.67;;;;;;;14.82;100.00;100163.84;5019489;22;20579;-69
2023/09/01 04:20:55;;;;;;;6.37;4.80;;;;;;;14.87;100.00;100163.81;5012440;28;20663;-69
2023/09/01 04:23:21;;;;;;;5.97;4.93;;;;;;;14.83;100.00;100154.06;5003417;28;20672;-69
2023/09/01 04:25:49;;;;;;;7.73;5.50;;;;;;;14.93;100.00;100147.75;5008380;28;20627;-69
2023/09/01 04:28:16;;;;;;;6.20;4.93;;;;;;;14.93;100.00;100150.41;4992767;28;20224;-68
2023/09/01 04:30:43;;;;;;;8.43;5.43;;;;;;;14.86;100.00;100160.25;4988178;28;20205;-68
2023/09/01 04:33:10;;;;;;;5.07;4.40;;;;;;;14.82;100.00;100163.84;4986504;28;20698;-68
2023/09/01 04:35:36;;;;;;;9.10;4.83;;;;;;;14.82;100.00;100161.19;4983552;28;20707;-69
2023/09/01 04:38:03;;;;;;;5.77;4.60;;;;;;;14.83;100.00;100159.41;4984198;28;20700;-68
2023/09/01 04:40:30;;;;;;;6.50;4.80;;;;;;;14.92;100.00;100154.88;4981731;28;20230;-68
2023/09/01 04:42:56;;;;;;;7.17;4.70;;;;;;;14.98;100.00;100159.25;4981284;28;20212;-68
2023/09/01 04:45:23;;;;;;;11.10;5.03;;;;;;;14.94;100.00;100155.75;4988636;28;20306;-68
2023/09/01 04:47:51;;;;;;;7.53;4.87;;;;;;;14.94;100.00;100163.75;4985973;28;20240;-68
2023/09/01 04:50:18;;;;;;;6.13;4.47;;;;;;;14.96;100.00;100175.28;4987110;28;20200;-69
2023/09/01 04:52:44;;;;;;;5.40;4.03;;;;;;;14.96;100.00;100177.94;4986136;28;20200;-68
2023/09/01 04:55:10;;;;;;;7.83;5.33;;;;;;;14.97;100.00;100181.50;4986398;28;20200;-68
2023/09/01 04:57:37;;;;;;;12.30;6.10;;;;;;;14.91;100.00;100166.44;4991040;28;20217;-68
2023/09/01 05:00:11;;;;;;;13.57;5.27;;;;;;;15.00;100.00;100187.69;4992853;28;20794;-69
2023/09/01 05:02:43;;;;;;;9.00;4.87;;;;;;;15.05;100.00;100191.19;4982823;28;20295;-69
2023/09/01 05:05:11;;;;;;;7.17;3.93;;;;;;;15.08;100.00;100197.41;4989480;28;20308;-69
2023/09/01 05:07:38;;;;;;;4.97;3.37;;;;;;;15.13;100.00;100199.13;5002169;28;20223;-68
2023/09/01 05:10:05;;;;;;;5.83;3.97;;;;;;;15.23;100.00;100205.31;4989767;28;20259;-68
2023/09/01 05:12:32;;;;;;;6.10;4.40;;;;;;;15.24;100.00;100196.41;4982020;28;20335;-68
2023/09/01 05:14:59;;;;;;;7.03;3.73;;;;;;;15.26;100.00;100190.16;5004582;28;20208;-69
2023/09/01 05:17:26;;;;;;;3.30;2.20;;;;;;;15.40;100.00;100189.13;4985056;28;20248;-68
2023/09/01 05:19:53;;;;;;;3.30;2.90;;;;;;;15.42;100.00;100192.66;4982711;28;20216;-68
2023/09/01 05:22:19;;;;;;;4.37;2.70;;;;;;;15.54;100.00;100209.44;4981588;28;20496;-67
2023/09/01 05:24:48;;;;;;;2.63;2.43;;;;;;;15.61;100.00;100210.31;4984114;28;20214;-66
2023/09/01 05:27:19;;;;;;;3.77;3.10;;;;;;;15.65;100.00;100207.59;4985702;28;20225;-68
2023/09/01 05:29:47;;;;;;;3.30;2.70;;;;;;;15.59;100.00;100201.41;4986526;28;20215;-71
2023/09/01 05:32:14;;;;;;;3.33;2.50;;;;;;;15.64;100.00;100208.50;4970937;28;20247;-70
2023/09/01 05:34:40;;;;;;;2.53;2.23;;;;;;;15.59;100.00;100202.28;4983426;28;20219;-68
2023/09/01 05:37:08;;;;;;;2.80;2.33;;;;;;;15.61;100.00;100200.53;4982569;28;20295;-70
2023/09/01 05:39:35;;;;;;;3.30;2.40;;;;;;;15.61;100.00;100203.19;4984662;28;20343;-70
2023/09/01 05:42:02;;;;;;;2.30;2.10;;;;;;;15.56;100.00;100206.75;4980593;28;20211;-70
2023/09/01 05:44:29;;;;;;;2.53;2.20;;;;;;;15.48;100.00;100182.81;4978983;28;20584;-69
2023/09/01 05:46:56;;;;;;;3.90;2.30;;;;;;;15.51;100.00;100192.56;4977636;28;20443;-70
2023/09/01 05:49:23;;;;;;;2.73;2.13;;;;;;;15.54;100.00;100190.75;4982624;28;20209;-69
2023/09/01 05:51:50;;;;;;;2.83;2.43;;;;;;;15.48;100.00;100196.16;4981453;28;20227;-67
2023/09/01 05:54:20;;;;;;;4.47;3.07;;;;;;;15.48;100.00;100190.81;4981510;28;20205;-69
2023/09/01 05:56:46;;;;;;;3.27;2.60;;;;;;;15.48;100.00;100189.94;4976693;28;20291;-66
2023/09/01 05:59:13;;;;;;;4.70;2.70;;;;;;;15.48;100.00;100200.59;4978894;28;20224;-68
2023/09/01 06:01:40;;;;;;;3.33;2.60;;;;;;;15.54;100.00;100196.09;4982401;28;20208;-66
2023/09/01 06:04:07;;;;;;;4.80;2.50;;;;;;;15.63;100.00;100197.84;4984289;28;21075;-69
2023/09/01 06:06:35;;;;;;;3.87;2.30;;;;;;;15.74;100.00;100203.06;4980983;28;20205;-67
2023/09/01 06:09:05;;;;;;;3.10;2.07;;;;;;;15.83;100.00;100211.84;4972485;28;20240;-67
2023/09/01 06:11:32;;;;;;;2.90;1.90;;;;;;;15.87;100.00;100208.25;4975598;28;20209;-69
2023/09/01 06:13:59;;;;;;;3.17;2.00;;;;;;;15.96;100.00;100210.81;4984903;28;20200;-68
2023/09/01 06:16:26;;;;;;;1.93;1.70;;;;;;;16.10;100.00;100196.41;4982779;28;20258;-69
2023/09/01 06:18:53;;;;;;;1.50;1.37;;;;;;;16.20;100.00;100198.94;4982660;28;20273;-68
2023/09/01 06:21:20;;;;;;;2.37;1.40;;;;;;;16.37;100.00;100206.75;4986507;28;20208;-69
2023/09/01 06:23:47;;;;;;;3.00;1.70;;;;;;;16.60;100.00;100201.97;4983255;28;20687;-67
2023/09/01 06:26:14;;;;;;;1.80;1.60;;;;;;;16.73;100.00;100202.72;4986513;28;20212;-66
2023/09/01 06:28:41;;;;;;;2.93;1.70;;;;;;;16.90;100.00;100210.50;4987816;28;20255;-69
2023/09/01 06:31:09;;;;;;;2.43;1.83;;;;;;;16.98;100.00;100199.69;4990903;28;20208;-70
2023/09/01 06:33:36;;;;;;;1.87;1.50;;;;;;;17.04;100.00;100203.13;4987342;28;20282;-70
2023/09/01 06:36:04;;;;;;;4.60;2.00;;;;;;;16.96;100.00;100202.38;4988357;28;20250;-70
2023/09/01 06:38:30;;;;;;;2.80;1.67;;;;;;;17.00;100.00;100198.75;4991044;28;20239;-70
2023/09/01 06:40:56;;;;;;;5.03;2.77;;;;;;;17.17;100.00;100203.81;4988955;28;20212;-70
2023/09/01 06:43:23;;;;;;;3.60;1.90;;;;;;;17.32;100.00;100208.91;4989376;28;20204;-69
2023/09/01 06:45:49;;;;;;;2.27;1.70;;;;;;;17.39;100.00;100207.91;4987558;28;20224;-70
2023/09/01 06:48:16;;;;;;;2.87;1.30;;;;;;;17.57;100.00;100205.78;4991015;28;20252;-70
2023/09/01 06:50:43;;;;;;;4.13;1.77;;;;;;;17.61;100.00;100202.16;4991537;28;20306;-69
2023/09/01 06:53:09;;;;;;;2.10;1.60;;;;;;;17.62;100.00;100212.88;4988964;28;20208;-69
2023/09/01 06:55:35;;;;;;;1.83;1.37;;;;;;;17.65;100.00;100215.47;4984568;28;20224;-69
2023/09/01 06:58:03;;;;;;;2.77;1.30;;;;;;;17.64;100.00;100215.50;4987093;28;20224;-70
2023/09/01 07:00:29;;;;;;;2.10;1.45;;;;;;;17.56;100.00;100220.97;4989538;28;20259;-70
2023/09/01 07:02:55;;;;;;;3.27;1.60;;;;;;;17.38;100.00;100203.47;4988795;28;20212;-70
2023/09/01 07:05:23;;;;;;;2.17;1.33;;;;;;;17.37;100.00;100224.91;5002393;28;20274;-70
2023/09/01 07:07:50;;;;;;;1.70;1.40;;;;;;;17.29;100.00;100224.16;4983916;28;20307;-68
2023/09/01 07:10:18;;;;;;;1.67;1.57;;;;;;;17.17;100.00;100222.53;4986032;28;20255;-71
2023/09/01 07:12:44;;;;;;;2.07;1.60;;;;;;;17.08;100.00;100217.34;4990741;28;20212;-70
2023/09/01 07:15:11;;;;;;;2.10;1.70;;;;;;;17.06;100.00;100220.03;4991347;28;20703;-70
2023/09/01 07:17:37;;;;;;;4.77;2.33;;;;;;;17.06;100.00;100213.81;4986604;28;20308;-70
2023/09/01 07:20:04;;;;;;;2.37;1.97;;;;;;;17.02;100.00;100223.69;4990821;28;20240;-69
2023/09/01 07:22:31;;;;;;;2.77;1.90;;;;;;;16.87;100.00;100219.47;4985027;28;20673;-70
2023/09/01 07:24:59;;;;;;;2.57;1.80;;;;;;;16.87;100.00;100229.28;4990126;28;20200;-70
2023/09/01 07:27:25;;;;;;;4.37;1.87;;;;;;;16.88;100.00;100236.38;4989571;28;20244;-70
2023/09/01 07:29:52;;;;;;;2.67;2.17;;;;;;;16.86;100.00;100236.41;5000621;28;20234;-70
2023/09/01 07:32:19;;;;;;;2.63;1.90;;;;;;;16.69;100.00;100232.19;4984474;28;20198;-71
2023/09/01 07:34:48;;;;;;;1.97;1.60;;;;;;;16.71;100.00;100239.28;4989283;28;20201;-70
2023/09/01 07:37:14;;;;;;;3.47;2.07;;;;;;;16.66;100.00;100240.25;4988457;28;20229;-71
2023/09/01 07:39:41;;;;;;;3.40;2.10;;;;;;;16.56;100.00;100243.03;4990917;28;20681;-71
2023/09/01 07:42:07;;;;;;;5.13;2.10;;;;;;;16.49;100.00;100244.03;4989034;28;20292;-70
2023/09/01 07:44:34;;;;;;;3.00;2.33;;;;;;;16.51;100.00;100252.91;4988331;28;20238;-69
2023/09/01 07:47:00;;;;;;;3.97;2.30;;;;;;;16.56;100.00;100255.50;4988281;28;20295;-69
2023/09/01 07:49:27;;;;;;;4.17;2.33;;;;;;;16.59;100.00;100260.81;4987545;28;20201;-70
2023/09/01 07:51:53;;;;;;;3.30;2.40;;;;;;;16.54;100.00;100252.88;4989510;28;20205;-70
2023/09/01 07:54:19;;;;;;;2.37;1.97;;;;;;;16.62;100.00;100252.75;4990481;28;20205;-69
2023/09/01 07:56:46;;;;;;;4.47;2.47;;;;;;;16.64;100.00;100258.97;4988164;28;20215;-70
2023/09/01 07:59:12;;;;;;;3.57;2.63;;;;;;;16.63;100.00;100265.22;4987514;28;20220;-68
2023/09/01 08:01:38;;;;;;;3.67;2.43;;;;;;;16.75;100.00;100258.84;4989626;28;20205;-70
2023/09/01 08:04:05;;;;;;;4.50;2.93;;;;;;;16.84;100.00;100259.63;4987881;28;20212;-69
2023/09/01 08:06:32;;;;;;;8.07;2.83;;;;;;;17.06;100.00;100254.81;4988211;28;20208;-71
2023/09/01 08:08:58;;;;;;;4.97;2.70;;;;;;;17.35;100.00;100257.06;4987155;28;20221;-70
2023/09/01 08:11:25;;;;;;;3.70;2.80;;;;;;;17.45;100.00;100257.78;4985981;28;20201;-71
2023/09/01 08:13:52;;;;;;;2.90;2.50;;;;;;;17.49;100.00;100265.72;4987435;28;20233;-68
2023/09/01 08:16:18;;;;;;;4.90;3.03;;;;;;;17.49;100.00;100263.06;4985675;28;20220;-71
2023/09/01 08:18:45;;;;;;;4.90;3.33;;;;;;;17.57;100.00;100270.06;4988899;28;20758;-70
2023/09/01 08:21:11;;;;;;;4.37;3.10;;;;;;;17.75;100.00;100267.13;4993969;28;20209;-71
2023/09/01 08:23:40;;;;;;;5.07;3.00;;;;;;;17.78;100.00;100265.25;4986533;28;20392;-71
2023/09/01 08:26:07;;;;;;;4.77;2.90;;;;;;;17.78;100.00;100265.25;4983476;28;20208;-71
2023/09/01 08:28:33;;;;;;;4.47;3.10;;;;;;;17.81;100.00;100265.22;4988690;28;20221;-71
2023/09/01 08:31:04;;;;;;;6.90;3.63;;;;;;;17.74;100.00;100271.59;4984401;28;20298;-72
2023/09/01 08:33:31;;;;;;;4.97;3.53;;;;;;;17.78;100.00;100275.09;4986992;28;20224;-72
2023/09/01 08:36:04;;;;;;;6.37;2.83;;;;;;;17.90;100.00;100274.00;4987143;28;20201;-70
2023/09/01 08:38:31;;;;;;;3.67;3.03;;;;;;;17.78;100.00;100264.38;4989945;28;20617;-72
2023/09/01 08:40:59;;;;;;;5.93;3.60;;;;;;;17.94;100.00;100276.56;4988157;28;20205;-71
2023/09/01 08:43:27;;;;;;;5.73;3.80;;;;;;;17.96;100.00;100269.38;4988492;28;20247;-69
2023/09/01 08:45:54;;;;;;;7.27;5.00;;;;;;;18.15;100.00;100276.19;4988404;28;20201;-70
2023/09/01 08:48:39;;;;;;;8.60;4.67;;;;;;;18.42;100.00;100273.88;4986930;28;20704;-71
2023/09/01 08:51:05;;;;;;;5.93;4.80;;;;;;;18.81;100.00;100257.84;4991990;28;20216;-69
2023/09/01 08:53:32;;;;;;;13.05;5.93;;;;;;;19.33;100.00;100270.97;4984333;28;20577;-70
2023/09/01 08:55:58;;;;;;;9.93;4.60;;;;;;;19.75;100.00;100268.16;5002063;28;20688;-72
2023/09/01 08:58:25;;;;;;;11.50;4.85;;;;;;;19.94;100.00;100269.44;4991075;28;20217;-72
2023/09/01 09:00:51;;;;;;;10.00;4.50;;;;;;;19.83;100.00;100274.22;4989539;28;20296;-71
2023/09/01 09:03:19;;;;;;;8.98;4.70;;;;;;;19.69;100.00;100266.53;4987997;28;20259;-73
2023/09/01 09:05:46;;;;;;;11.98;4.45;;;;;;;19.61;100.00;100274.78;4982064;28;20685;-68
2023/09/01 09:08:12;;;;;;;7.78;4.40;;;;;;;19.26;100.00;100272.03;4986517;28;20221;-72
2023/09/01 09:10:42;;;;;;;9.32;6.30;;;;;;;18.99;100.00;100282.50;4986560;28;20291;-69
2023/09/01 09:13:22;;;;;;;13.75;5.32;;;;;;;18.74;100.00;100268.72;4995103;28;20207;-70
2023/09/01 09:16:07;;;;;;;12.27;4.75;;;;;;;18.51;100.00;100270.13;4988466;28;20197;-72
2023/09/01 09:18:35;;;;;;;10.38;7.18;;;;;;;18.40;100.00;100278.38;4985462;28;20228;-70
2023/09/01 09:21:02;;;;;;;12.52;5.68;;;;;;;18.22;100.00;100274.25;4990116;28;20323;-71
2023/09/01 09:23:45;;;;;;;9.23;5.03;;;;;;;18.14;100.00;100282.47;4985436;28;20259;-71
2023/09/01 09:26:12;;;;;;;8.97;4.73;;;;;;;17.92;100.00;100265.00;4984578;28;20197;-72
2023/09/01 09:28:39;;;;;;;7.00;4.60;;;;;;;17.88;100.00;100274.00;4982942;28;20216;-70
2023/09/01 09:31:06;;;;;;;5.00;3.73;;;;;;;17.86;100.00;100270.47;4987003;28;20284;-71
2023/09/01 09:33:34;;;;;;;4.83;3.50;;;;;;;17.80;100.00;100273.28;4982196;28;20197;-71
2023/09/01 09:36:00;;;;;;;6.37;3.70;;;;;;;17.90;100.00;100280.22;4982919;28;20227;-71
2023/09/01 09:38:44;;;;;;;6.47;4.00;;;;;;;17.97;100.00;100271.16;4988468;28;20216;-71
2023/09/01 09:41:10;;;;;;;5.83;4.17;;;;;;;17.98;100.00;100282.75;4983690;28;20200;-72
2023/09/01 09:43:44;;;;;;;7.77;4.70;;;;;;;18.13;100.00;100282.50;4984817;28;20207;-72
2023/09/01 09:46:11;;;;;;;5.53;3.90;;;;;;;18.30;100.00;100283.03;4982533;28;20215;-71
2023/09/01 09:48:38;;;;;;;6.33;4.03;;;;;;;18.68;100.00;100281.41;4987432;28;20221;-70
2023/09/01 09:51:10;;;;;;;6.30;4.30;;;;;;;18.92;100.00;100278.19;4988540;28;20235;-72
2023/09/01 09:53:38;;;;;;;10.18;3.90;;;;;;;19.22;100.00;100281.97;4988253;28;20256;-74
2023/09/01 09:56:32;;;;;;;9.37;4.60;;;;;;;19.31;100.00;100268.31;4989130;28;20235;-72
2023/09/01 09:59:06;;;;;;;6.00;4.10;;;;;;;19.42;100.00;100282.38;4988602;28;20220;-72
2023/09/01 10:01:39;;;;;;;6.18;4.57;;;;;;;19.37;100.00;100264.59;5003183;28;20236;-74
2023/09/01 10:04:06;;;;;;;6.72;4.40;;;;;;;19.60;100.00;100282.84;5001757;28;20203;-73
2023/09/01 10:06:36;;;;;;;7.40;4.22;;;;;;;19.62;100.00;100278.34;4987551;28;20304;-72
2023/09/01 10:09:07;;;;;;;8.13;4.60;;;;;;;19.56;100.00;100282.03;4987149;28;20231;-71
2023/09/01 10:11:35;;;;;;;6.30;4.72;;;;;;;19.58;100.00;100279.31;4987322;28;20200;-70
2023/09/01 10:14:03;;;;;;;7.35;4.10;;;;;;;19.65;100.00;100276.47;4984764;28;20209;-71
2023/09/01 10:16:30;;;;;;;6.45;4.30;;;;;;;19.63;100.00;100261.31;4982630;28;20232;-70
2023/09/01 10:18:57;;;;;;;6.25;4.30;;;;;;;19.71;100.00;100259.31;5008716;23;20734;-72
2023/09/01 10:21:24;;;;;;;6.70;4.40;;;;;;;19.96;100.00;100263.09;4995203;28;20217;-72
2023/09/01 10:23:50;;;;;;;8.68;4.10;;;;;;;20.25;100.00;100251.53;5012659;28;20212;-73
2023/09/01 10:26:25;;;;;;;5.03;4.18;;;;;;;20.42;100.00;100248.41;5001427;28;20215;-74
2023/09/01 10:29:01;;;;;;;6.80;3.78;;;;;;;20.86;100.00;100249.75;5001799;28;20223;-73
2023/09/01 10:31:28;;;;;;;6.45;3.58;;;;;;;21.32;100.00;100248.31;4994877;28;20211;-73
2023/09/01 10:34:08;;;;;;;6.35;4.35;;;;;;;21.52;100.00;100240.44;4999145;28;20204;-77
2023/09/01 10:36:37;;;;;;;7.25;4.13;;;;;;;21.55;100.00;100237.63;4997560;28;20208;-75
2023/09/01 10:39:19;;;;;;;7.35;4.25;;;;;;;21.72;100.00;100241.59;4995951;28;20223;-76
2023/09/01 10:41:51;;;;;;;5.20;3.95;;;;;;;21.95;100.00;100238.06;5021747;28;20290;-75
2023/09/01 10:44:17;;;;;;;5.70;4.45;;;;;;;21.96;100.00;100232.63;5003192;28;20207;-75
2023/09/01 10:46:44;;;;;;;6.55;4.80;;;;;;;22.07;100.00;100227.78;5015414;28;20283;-75
2023/09/01 10:49:12;;;;;;;4.88;3.97;;;;;;;22.21;100.00;100219.16;4996757;28;20224;-75
2023/09/01 10:51:39;;;;;;;4.78;3.80;;;;;;;22.32;100.00;100227.72;4996789;28;20231;-76
2023/09/01 10:54:15;;;;;;;6.70;4.93;;;;;;;22.12;100.00;100223.09;5000990;28;20212;-76
2023/09/01 10:56:59;;;;;;;4.40;4.00;;;;;;;21.77;100.00;100223.44;5001192;28;20203;-73
2023/09/01 10:59:30;;;;;;;7.13;5.28;;;;;;;21.31;100.00;100227.72;4997889;28;20216;-74
2023/09/01 11:02:15;;;;;;;11.35;6.68;;;;;;;20.64;100.00;100241.44;5000151;28;20205;-74
2023/09/01 11:04:44;;;;;;;11.02;7.10;;;;;;;20.19;100.00;100230.19;5012686;28;20727;-74
2023/09/01 11:07:11;;;;;;;9.18;6.32;;;;;;;19.70;100.00;100231.53;5002046;28;20752;-74
2023/09/01 11:09:50;;;;;;;13.38;6.32;;;;;;;19.41;100.00;100228.69;5001148;28;20251;-74
2023/09/01 11:12:18;;;;;;;16.25;6.85;;;;;;;19.36;100.00;100231.50;5012627;28;20287;-73
2023/09/01 11:14:57;;;;;;;9.93;6.60;;;;;;;19.36;100.00;100231.50;5008326;28;20196;-74
2023/09/01 11:17:33;;;;;;;10.55;6.70;;;;;;;19.67;100.00;100223.56;5001065;28;20227;-73
2023/09/01 11:20:00;;;;;;;9.50;5.80;;;;;;;20.52;100.00;100219.41;5007851;28;20200;-73
2023/09/01 11:22:27;;;;;;;8.82;4.95;;;;;;;21.24;100.00;100210.88;5006712;28;20243;-73